Time;durP1;ratioP1;P1;durP2;ratioP2;P2;SDS_P1;SDS_P2;PMS_P1;PMS_P2;Temp;Humidity;BMP_temperature;BMP_pressure;BME280_temperature;BME280_humidity;BME280_pressure;Samples;Min_cycle;Max_cycle;Signal;HPM_P1;HPM_P2
2022/11/14 00:04:39;;;;;;;17.20;8.63;;;10.60;98.70;;;;;;10427670;28;20438;-61
2022/11/14 00:09:41;;;;;;;20.35;9.45;;;10.60;98.70;;;;;;10434103;28;20037;-60
2022/11/14 00:14:42;;;;;;;18.85;9.25;;;10.60;98.70;;;;;;10445144;28;20029;-61
2022/11/14 00:19:43;;;;;;;19.40;9.68;;;10.60;98.70;;;;;;10442819;28;20041;-62
2022/11/14 00:24:44;;;;;;;17.15;8.43;;;10.60;98.70;;;;;;10414960;28;20132;-61
2022/11/14 00:29:44;;;;;;;17.58;9.50;;;10.60;98.70;;;;;;10442862;28;20021;-61
2022/11/14 00:34:45;;;;;;;19.13;8.70;;;10.60;98.70;;;;;;10439047;28;20108;-61
2022/11/14 00:39:46;;;;;;;19.35;8.80;;;10.60;98.70;;;;;;10444641;28;20013;-61
2022/11/14 00:44:46;;;;;;;19.55;8.60;;;10.60;98.70;;;;;;10448085;28;20028;-61
2022/11/14 00:49:47;;;;;;;19.05;8.85;;;10.60;98.70;;;;;;10440107;28;20040;-61
2022/11/14 00:54:48;;;;;;;19.88;9.32;;;10.60;98.70;;;;;;10422328;28;20539;-64
2022/11/14 00:59:48;;;;;;;22.13;9.05;;;10.60;98.70;;;;;;10449387;28;20022;-62
2022/11/14 01:04:49;;;;;;;20.10;9.52;;;10.60;98.70;;;;;;10454099;28;20083;-61
2022/11/14 01:09:50;;;;;;;18.95;8.93;;;10.60;98.70;;;;;;10435677;28;20063;-61
2022/11/14 01:14:50;;;;;;;22.77;9.80;;;10.60;98.70;;;;;;10451221;28;20025;-60
2022/11/14 01:19:51;;;;;;;19.48;8.63;;;10.60;98.70;;;;;;10453605;28;20047;-62
2022/11/14 01:24:54;;;;;;;19.05;8.38;;;10.60;98.70;;;;;;10429552;28;20021;-61
2022/11/14 01:29:54;;;;;;;19.65;9.40;;;11.10;98.80;;;;;;10447133;28;20090;-60
2022/11/14 01:34:55;;;;;;;21.35;9.27;;;10.60;98.70;;;;;;10448771;28;20361;-61
2022/11/14 01:39:56;;;;;;;20.45;9.88;;;10.60;98.70;;;;;;10446279;28;20049;-61
2022/11/14 01:44:56;;;;;;;23.38;10.32;;;10.60;98.70;;;;;;10424907;28;20394;-62
2022/11/14 01:49:59;;;;;;;21.35;10.07;;;10.60;98.70;;;;;;10423735;28;20021;-61
2022/11/14 01:55:04;;;;;;;21.80;9.45;;;10.60;98.70;;;;;;10433721;28;20044;-61
2022/11/14 02:00:08;;;;;;;24.33;10.73;;;10.60;98.70;;;;;;10446650;28;20513;-63
2022/11/14 02:05:12;;;;;;;24.58;10.55;;;10.50;98.70;;;;;;10428112;28;20021;-61
2022/11/14 02:10:19;;;;;;;23.40;10.75;;;10.50;98.70;;;;;;10435102;28;20450;-61
2022/11/14 02:15:20;;;;;;;21.60;10.88;;;10.50;98.70;;;;;;10447407;28;20044;-61
2022/11/14 02:20:30;;;;;;;24.48;10.57;;;10.50;98.70;;;;;;10441864;28;20033;-61
2022/11/14 02:25:31;;;;;;;23.80;11.05;;;10.50;98.70;;;;;;10419512;28;20032;-61
2022/11/14 02:30:32;;;;;;;29.35;11.68;;;10.50;98.70;;;;;;10405680;28;20178;-61
2022/11/14 02:35:32;;;;;;;24.17;11.02;;;10.50;98.70;;;;;;10418979;28;20088;-62
2022/11/14 02:40:33;;;;;;;26.77;11.40;;;10.50;98.70;;;;;;10435612;28;20040;-61
2022/11/14 02:45:34;;;;;;;27.13;12.05;;;10.50;98.70;;;;;;10454396;28;20519;-61
2022/11/14 02:50:34;;;;;;;24.17;10.75;;;10.40;98.70;;;;;;10447391;28;20025;-61
2022/11/14 02:55:35;;;;;;;28.55;11.45;;;10.40;98.70;;;;;;10445473;28;20083;-61
2022/11/14 03:00:36;;;;;;;28.77;11.88;;;10.40;98.70;;;;;;10444976;28;20310;-61
2022/11/14 03:05:36;;;;;;;23.83;10.80;;;10.40;98.70;;;;;;10452276;28;20090;-61
2022/11/14 03:10:37;;;;;;;25.27;11.70;;;10.60;98.70;;;;;;10461028;28;20028;-61
2022/11/14 03:15:38;;;;;;;27.80;11.82;;;10.40;98.70;;;;;;10435761;28;20410;-61
2022/11/14 03:20:39;;;;;;;25.92;11.52;;;10.40;98.70;;;;;;10433734;28;20529;-62
2022/11/14 03:25:40;;;;;;;30.90;12.82;;;10.40;98.70;;;;;;10437452;28;20045;-61
2022/11/14 03:30:41;;;;;;;26.63;11.82;;;10.40;98.70;;;;;;10445195;28;20029;-61
2022/11/14 03:35:42;;;;;;;27.08;11.65;;;10.30;98.70;;;;;;10446823;28;20386;-61
2022/11/14 03:40:43;;;;;;;28.15;11.80;;;10.40;98.70;;;;;;10453291;28;20426;-60
2022/11/14 03:45:45;;;;;;;30.42;13.00;;;10.30;98.70;;;;;;10449541;28;20536;-61
2022/11/14 03:50:46;;;;;;;31.58;13.35;;;10.40;98.70;;;;;;10444621;28;20509;-62
2022/11/14 03:55:46;;;;;;;29.08;12.55;;;10.30;98.70;;;;;;10439741;28;20125;-61
2022/11/14 04:00:47;;;;;;;28.80;12.82;;;10.30;98.60;;;;;;10415746;28;20021;-60
2022/11/14 04:05:48;;;;;;;29.85;12.48;;;10.40;98.60;;;;;;10423910;28;20021;-61
2022/11/14 04:10:49;;;;;;;29.38;11.82;;;10.30;98.60;;;;;;10421578;28;20092;-60
2022/11/14 04:15:56;;;;;;;28.90;12.38;;;10.30;98.60;;;;;;10429390;28;20049;-61
2022/11/14 04:20:57;;;;;;;34.17;13.57;;;10.40;98.60;;;;;;10442574;28;20032;-61
2022/11/14 04:25:57;;;;;;;30.20;13.38;;;10.40;98.60;;;;;;10442762;28;20025;-60
2022/11/14 04:30:59;;;;;;;32.85;14.68;;;10.30;98.60;;;;;;10456662;28;20037;-64
2022/11/14 04:35:59;;;;;;;30.52;13.15;;;10.30;98.60;;;;;;10442292;28;20080;-62
2022/11/14 04:41:00;;;;;;;32.25;13.68;;;10.40;98.60;;;;;;10443501;28;20120;-64
2022/11/14 04:46:01;;;;;;;32.45;13.80;;;10.30;98.60;;;;;;10453191;28;20028;-61
2022/11/14 04:51:02;;;;;;;32.75;14.35;;;10.30;98.60;;;;;;10457545;28;20013;-61
2022/11/14 04:56:03;;;;;;;33.13;14.02;;;10.30;98.50;;;;;;10448323;28;20040;-61
2022/11/14 05:01:08;;;;;;;34.78;14.70;;;10.30;98.50;;;;;;10449421;28;20021;-64
2022/11/14 05:06:10;;;;;;;28.98;13.77;;;10.30;98.50;;;;;;10446671;28;20025;-61
2022/11/14 05:11:18;;;;;;;29.73;14.05;;;10.30;98.50;;;;;;10448893;28;20021;-61
2022/11/14 05:16:18;;;;;;;33.97;14.63;;;10.20;98.50;;;;;;10444648;28;20056;-61
2022/11/14 05:21:19;;;;;;;34.00;14.32;;;10.30;98.50;;;;;;10461630;28;20629;-61
2022/11/14 05:26:20;;;;;;;37.38;15.73;;;10.20;98.50;;;;;;10455409;28;20117;-61
2022/11/14 05:31:21;;;;;;;35.53;14.93;;;10.30;98.60;;;;;;10449241;28;20501;-61
2022/11/14 05:36:22;;;;;;;36.15;14.98;;;10.20;98.60;;;;;;10448285;28;20486;-60
2022/11/14 05:41:22;;;;;;;29.20;13.65;;;10.20;98.60;;;;;;10455037;28;20512;-61
2022/11/14 05:46:23;;;;;;;33.90;15.43;;;10.30;98.60;;;;;;10465188;28;20029;-61
2022/11/14 05:51:24;;;;;;;37.28;15.52;;;10.20;98.60;;;;;;10441827;28;20120;-61
2022/11/14 05:56:24;;;;;;;37.05;15.20;;;10.20;98.60;;;;;;10447682;28;20443;-61
2022/11/14 06:01:26;;;;;;;37.28;15.98;;;10.20;98.60;;;;;;10425937;28;20021;-61
2022/11/14 06:06:27;;;;;;;35.88;15.88;;;10.10;98.60;;;;;;10428859;28;20017;-62
2022/11/14 06:11:28;;;;;;;38.92;16.50;;;10.10;98.70;;;;;;10441971;28;20022;-62
2022/11/14 06:16:29;;;;;;;37.30;16.17;;;10.00;98.70;;;;;;10435748;28;20470;-62
2022/11/14 06:21:29;;;;;;;36.67;16.42;;;10.10;98.70;;;;;;10432967;28;20387;-61
2022/11/14 06:26:31;;;;;;;37.78;17.25;;;10.10;98.70;;;;;;10412837;28;20030;-61
2022/11/14 06:31:32;;;;;;;38.15;16.17;;;10.10;98.60;;;;;;10430659;28;20424;-62
2022/11/14 06:36:32;;;;;;;35.17;15.80;;;10.10;98.60;;;;;;10417901;28;20094;-61
2022/11/14 06:41:33;;;;;;;39.33;16.90;;;10.10;98.60;;;;;;10445511;28;20021;-62
2022/11/14 06:46:39;;;;;;;39.75;17.52;;;10.10;98.60;;;;;;10461658;28;20093;-61
2022/11/14 06:51:39;;;;;;;37.97;15.27;;;10.10;98.60;;;;;;10448111;28;20029;-62
2022/11/14 06:56:40;;;;;;;35.67;16.10;;;10.10;98.60;;;;;;10434124;28;20041;-62
2022/11/14 07:01:41;;;;;;;35.25;15.10;;;10.10;98.60;;;;;;10417496;28;20126;-61
2022/11/14 07:06:41;;;;;;;32.90;14.63;;;10.10;98.60;;;;;;10434183;28;20394;-61
2022/11/14 07:11:44;;;;;;;33.85;15.18;;;10.10;98.60;;;;;;10427014;28;20497;-62
2022/11/14 07:16:46;;;;;;;40.10;15.77;;;10.10;98.60;;;;;;10386864;28;20144;-61
2022/11/14 07:21:47;;;;;;;35.03;15.05;;;10.10;98.60;;;;;;10347638;28;20583;-62
2022/11/14 07:26:48;;;;;;;35.45;15.25;;;10.10;98.60;;;;;;10355577;28;20322;-62
2022/11/14 07:31:48;;;;;;;37.97;16.27;;;10.10;98.60;;;;;;10376229;28;20407;-62
2022/11/14 07:36:49;;;;;;;41.15;16.17;;;10.10;98.50;;;;;;10353378;28;20037;-60
2022/11/14 07:41:50;;;;;;;37.00;15.02;;;10.10;98.70;;;;;;10361412;28;20033;-61
2022/11/14 07:46:51;;;;;;;37.05;15.60;;;10.10;98.50;;;;;;10362482;28;20084;-65
2022/11/14 07:51:51;;;;;;;36.22;15.57;;;10.10;98.50;;;;;;10366942;28;20025;-62
2022/11/14 07:56:53;;;;;;;34.90;15.05;;;10.10;98.70;;;;;;10385836;28;20419;-61
2022/11/14 08:01:54;;;;;;;37.67;15.90;;;10.10;98.50;;;;;;10361580;28;20148;-61
2022/11/14 08:06:54;;;;;;;32.58;15.40;;;10.10;98.50;;;;;;10358865;28;20058;-61
2022/11/14 08:11:55;;;;;;;34.75;15.73;;;10.10;98.40;;;;;;10368694;28;20027;-62
2022/11/14 08:16:56;;;;;;;34.10;14.70;;;10.10;98.40;;;;;;10352127;28;21115;-64
2022/11/14 08:21:57;;;;;;;35.50;14.52;;;10.10;98.40;;;;;;10367858;28;20102;-61
2022/11/14 08:26:57;;;;;;;34.55;14.88;;;10.10;98.40;;;;;;10361773;28;20481;-64
2022/11/14 08:31:58;;;;;;;36.15;14.30;;;10.10;98.40;;;;;;10365876;28;20235;-61
2022/11/14 08:37:00;;;;;;;36.17;14.65;;;9.80;98.30;;;;;;10374222;28;20068;-62
2022/11/14 08:42:01;;;;;;;31.33;13.93;;;10.20;98.30;;;;;;10379738;28;20079;-61
2022/11/14 08:47:02;;;;;;;32.55;14.35;;;10.20;98.30;;;;;;10366609;28;20463;-62
2022/11/14 08:52:03;;;;;;;32.92;14.13;;;10.10;98.30;;;;;;10373628;28;20214;-61
2022/11/14 08:57:05;;;;;;;30.83;12.40;;;10.30;98.30;;;;;;10381648;28;20107;-61
2022/11/14 09:02:08;;;;;;;28.38;14.02;;;10.30;98.30;;;;;;10372839;28;20033;-61
2022/11/14 09:07:09;;;;;;;31.27;13.02;;;10.30;98.20;;;;;;10375442;28;20666;-61
2022/11/14 09:12:09;;;;;;;36.17;13.98;;;10.40;98.20;;;;;;10377787;28;20029;-61
2022/11/14 09:17:10;;;;;;;31.60;13.38;;;10.30;98.20;;;;;;10371714;28;20520;-63
2022/11/14 09:22:11;;;;;;;30.95;14.20;;;10.40;98.20;;;;;;10373813;28;20031;-62
2022/11/14 09:27:13;;;;;;;27.60;12.07;;;10.40;98.20;;;;;;10373415;28;20032;-61
2022/11/14 09:32:13;;;;;;;27.33;12.98;;;10.40;98.20;;;;;;10357519;28;20545;-62
2022/11/14 09:37:14;;;;;;;27.25;12.48;;;10.40;98.20;;;;;;10343160;28;20250;-61
2022/11/14 09:42:18;;;;;;;27.42;13.30;;;10.40;98.20;;;;;;10359932;28;20116;-62
2022/11/14 09:47:24;;;;;;;28.55;12.43;;;10.40;98.20;;;;;;10377896;28;20099;-60
2022/11/14 09:52:36;;;;;;;31.73;13.10;;;10.50;98.20;;;;;;10382730;28;20033;-62
2022/11/14 09:57:36;;;;;;;29.65;12.15;;;10.50;98.20;;;;;;10370451;28;20041;-61
2022/11/14 10:03:15;;;;;;;30.70;12.15;;;10.50;98.10;;;;;;10373663;28;20033;-62
2022/11/14 10:08:37;;;;;;;23.30;11.85;;;10.50;98.00;;;;;;10378010;28;20119;-60
2022/11/14 10:14:03;;;;;;;26.70;11.88;;;10.10;97.90;;;;;;10368005;28;20481;-61
2022/11/14 10:19:28;;;;;;;25.33;12.00;;;10.50;98.00;;;;;;10373093;28;20430;-60
2022/11/14 10:24:50;;;;;;;22.52;11.38;;;10.50;98.00;;;;;;10365309;28;20110;-63
2022/11/14 10:30:27;;;;;;;25.52;11.27;;;10.60;98.00;;;;;;10380372;28;20024;-61
2022/11/14 10:35:40;;;;;;;23.80;11.32;;;10.60;98.00;;;;;;10358308;28;20802;-61
2022/11/14 10:40:45;;;;;;;22.83;10.52;;;10.60;98.00;;;;;;10376643;28;20017;-62
2022/11/14 10:45:51;;;;;;;21.73;10.32;;;10.70;98.00;;;;;;10387720;28;20029;-61
2022/11/14 10:51:17;;;;;;;22.83;10.80;;;10.10;97.80;;;;;;10379441;28;20325;-60
2022/11/14 10:56:18;;;;;;;24.25;10.70;;;10.70;98.00;;;;;;10360373;28;20324;-61
2022/11/14 11:01:52;;;;;;;23.80;10.30;;;10.70;98.00;;;;;;10369715;28;20382;-61
2022/11/14 11:06:56;;;;;;;23.17;10.27;;;10.70;97.90;;;;;;10372270;28;20267;-60
2022/11/14 11:12:02;;;;;;;21.17;10.07;;;10.80;98.00;;;;;;10369885;28;20762;-61
2022/11/14 11:17:19;;;;;;;20.67;10.07;;;10.80;98.00;;;;;;10366144;28;20061;-60
2022/11/14 11:22:35;;;;;;;22.15;10.25;;;10.80;97.90;;;;;;10378341;28;20040;-62
2022/11/14 11:27:36;;;;;;;20.73;10.18;;;10.80;97.90;;;;;;10379676;28;20344;-61
2022/11/14 11:32:37;;;;;;;20.25;9.45;;;10.80;97.90;;;;;;10368970;28;20030;-61
2022/11/14 11:37:40;;;;;;;19.65;10.05;;;10.90;97.90;;;;;;10358342;28;20029;-63
2022/11/14 11:42:59;;;;;;;22.70;10.32;;;10.80;97.90;;;;;;10360633;28;20485;-61
2022/11/14 11:48:16;;;;;;;20.35;9.50;;;10.90;97.80;;;;;;10371988;28;20033;-61
2022/11/14 11:53:38;;;;;;;21.77;10.02;;;10.90;97.90;;;;;;10367846;28;20397;-62
2022/11/14 11:58:46;;;;;;;19.17;9.57;;;11.00;97.90;;;;;;10357768;28;20833;-62
2022/11/14 12:03:53;;;;;;;18.42;9.30;;;11.00;97.90;;;;;;10360329;28;20025;-64
2022/11/14 12:09:21;;;;;;;19.60;9.50;;;11.00;97.90;;;;;;10369348;28;20389;-63
2022/11/14 12:14:22;;;;;;;21.98;10.55;;;11.00;97.80;;;;;;10365552;28;20582;-61
2022/11/14 12:19:45;;;;;;;20.92;10.05;;;11.00;97.80;;;;;;10360493;28;20293;-64
2022/11/14 12:25:04;;;;;;;21.88;10.70;;;11.50;97.90;;;;;;10357130;28;20032;-61
2022/11/14 12:30:21;;;;;;;19.92;9.80;;;11.10;97.80;;;;;;10359490;28;20024;-61
2022/11/14 12:35:25;;;;;;;23.65;10.43;;;11.00;97.80;;;;;;10348891;28;20553;-61
2022/11/14 12:40:31;;;;;;;19.08;9.70;;;11.00;97.80;;;;;;10383616;28;20051;-61
2022/11/14 12:45:35;;;;;;;18.52;9.75;;;11.20;97.90;;;;;;10377771;28;20879;-63
2022/11/14 12:50:40;;;;;;;23.90;10.02;;;11.00;97.80;;;;;;10374260;28;20116;-61
2022/11/14 12:55:44;;;;;;;19.33;9.95;;;11.00;97.80;;;;;;10370961;28;20025;-61
2022/11/14 13:00:45;;;;;;;25.00;10.27;;;11.00;97.80;;;;;;10374417;28;20682;-61
2022/11/14 13:05:59;;;;;;;18.90;10.27;;;11.00;97.90;;;;;;10363864;28;20029;-61
2022/11/14 13:22:41;;;;;;;21.35;10.35;;;11.00;97.90;;;;;;10360275;28;20086;-60
2022/11/14 13:27:43;;;;;;;22.48;10.55;;;11.00;97.80;;;;;;10361902;28;20028;-60
2022/11/14 13:32:43;;;;;;;24.60;10.00;;;11.00;97.90;;;;;;10358396;28;20029;-64
2022/11/14 13:38:02;;;;;;;18.98;10.18;;;10.90;97.90;;;;;;10363236;28;20037;-62
2022/11/14 13:43:03;;;;;;;19.20;9.77;;;11.00;97.90;;;;;;10367241;28;20453;-64
2022/11/14 13:48:35;;;;;;;21.95;11.18;;;10.90;97.90;;;;;;10363741;28;20032;-63
2022/11/14 13:53:39;;;;;;;25.13;12.32;;;10.90;97.50;;;;;;10364245;28;20048;-60
2022/11/14 13:59:15;;;;;;;21.80;11.27;;;10.70;97.90;;;;;;10364729;28;20051;-60
2022/11/14 14:04:39;;;;;;;24.73;11.45;;;10.50;97.80;;;;;;10351550;28;20085;-61
2022/11/14 14:09:48;;;;;;;23.27;10.80;;;10.40;97.90;;;;;;10367033;28;20485;-61
2022/11/14 14:15:12;;;;;;;21.35;10.93;;;10.30;98.10;;;;;;10369994;28;20048;-61
2022/11/14 14:20:21;;;;;;;22.35;11.48;;;10.20;98.00;;;;;;10378222;28;20055;-60
2022/11/14 14:25:30;;;;;;;19.03;10.47;;;10.00;98.30;;;;;;10367916;28;20465;-60
2022/11/14 14:30:33;;;;;;;22.08;11.20;;;9.90;98.40;;;;;;10369943;28;21018;-63
2022/11/14 14:35:36;;;;;;;19.92;10.77;;;10.40;99.10;;;;;;10361997;28;20059;-60
2022/11/14 14:40:39;;;;;;;23.15;11.73;;;10.00;98.60;;;;;;10354854;28;20149;-61
2022/11/14 14:45:51;;;;;;;17.77;10.10;;;10.10;98.50;;;;;;10358308;28;20043;-59
2022/11/14 14:50:57;;;;;;;20.20;10.18;;;10.30;98.40;;;;;;10348021;28;20031;-65
2022/11/14 14:56:04;;;;;;;19.67;10.27;;;10.30;98.30;;;;;;10330757;28;20414;-61
2022/11/14 15:01:09;;;;;;;21.48;10.02;;;10.40;98.20;;;;;;10352134;28;20472;-60
2022/11/14 15:06:33;;;;;;;20.50;9.38;;;10.40;98.20;;;;;;10357468;28;20218;-60
2022/11/14 15:11:35;;;;;;;17.27;9.13;;;10.50;98.10;;;;;;10361848;28;20530;-60
2022/11/14 15:16:36;;;;;;;18.75;9.60;;;10.50;98.10;;;;;;10350828;28;20689;-60
2022/11/14 15:21:37;;;;;;;17.02;8.85;;;10.50;98.10;;;;;;10363646;28;20206;-60
2022/11/14 15:26:38;;;;;;;15.00;8.57;;;10.50;98.10;;;;;;10357949;28;20596;-59
2022/11/14 15:32:03;;;;;;;17.58;9.18;;;10.50;98.10;;;;;;10344357;28;20545;-60
2022/11/14 15:37:12;;;;;;;13.48;8.13;;;10.60;98.10;;;;;;10352955;28;20041;-64
2022/11/14 15:42:13;;;;;;;;;;;10.60;98.10;;;;;;10361916;28;20812;-60
2022/11/14 15:47:28;;;;;;;16.02;7.82;;;10.60;98.10;;;;;;10357489;28;19982;-60
2022/11/14 15:52:46;;;;;;;14.10;8.15;;;10.60;98.10;;;;;;10358647;28;20098;-60
2022/11/14 15:57:46;;;;;;;17.38;8.55;;;10.60;98.10;;;;;;10354167;28;20208;-60
2022/11/14 16:02:56;;;;;;;15.82;8.05;;;10.60;98.10;;;;;;10344823;28;20037;-60
2022/11/14 16:07:56;;;;;;;13.68;7.38;;;10.60;98.10;;;;;;10349453;28;20391;-59
2022/11/14 16:12:57;;;;;;;13.93;7.93;;;10.60;98.10;;;;;;10348822;28;21065;-59
2022/11/14 16:17:58;;;;;;;14.10;8.02;;;10.60;98.10;;;;;;10395225;28;20069;-59
2022/11/14 16:22:58;;;;;;;15.55;8.27;;;10.50;98.10;;;;;;10414475;28;20124;-60
2022/11/14 16:27:59;;;;;;;12.88;7.85;;;10.50;98.10;;;;;;10437059;28;20041;-74
2022/11/14 16:33:00;;;;;;;14.23;7.88;;;10.60;98.10;;;;;;10436587;28;20036;-60
2022/11/14 16:38:00;;;;;;;14.85;7.65;;;10.60;98.20;;;;;;10440209;28;20038;-59
2022/11/14 16:43:02;;;;;;;15.65;8.02;;;10.60;98.30;;;;;;10435492;28;20131;-59
2022/11/14 16:48:03;;;;;;;13.98;7.25;;;10.60;98.30;;;;;;10439019;28;20044;-59
2022/11/14 16:53:04;;;;;;;13.20;7.40;;;10.60;98.30;;;;;;10440062;28;20555;-60
2022/11/14 16:58:04;;;;;;;14.40;7.30;;;10.60;98.30;;;;;;10424134;28;20042;-59
2022/11/14 17:03:05;;;;;;;15.68;7.70;;;10.60;98.30;;;;;;10432898;28;20059;-62
2022/11/14 17:08:06;;;;;;;14.00;7.45;;;10.60;98.30;;;;;;10445105;28;20509;-60
2022/11/14 17:13:07;;;;;;;16.42;7.93;;;10.60;98.30;;;;;;10436404;28;20045;-60
2022/11/14 17:18:08;;;;;;;14.00;7.55;;;10.60;98.30;;;;;;10447867;28;20224;-60
2022/11/14 17:23:08;;;;;;;15.77;8.52;;;10.60;98.50;;;;;;10432570;28;20014;-59
2022/11/14 17:28:09;;;;;;;13.80;7.22;;;10.60;98.40;;;;;;10445532;28;20047;-60
2022/11/14 17:33:10;;;;;;;15.13;7.93;;;10.60;98.30;;;;;;10435951;28;20101;-60
2022/11/14 17:38:11;;;;;;;14.52;7.78;;;10.60;98.30;;;;;;10444684;28;20037;-59
2022/11/14 17:43:14;;;;;;;13.82;7.53;;;10.70;98.40;;;;;;10435832;28;20029;-59
2022/11/14 17:48:15;;;;;;;12.90;6.95;;;10.70;98.40;;;;;;10430884;28;20032;-59
2022/11/14 17:53:16;;;;;;;13.32;7.10;;;10.70;98.40;;;;;;10439451;28;20041;-59
2022/11/14 17:58:17;;;;;;;12.93;7.18;;;10.70;98.40;;;;;;10437309;28;20077;-60
2022/11/14 18:03:18;;;;;;;12.13;6.95;;;10.70;98.40;;;;;;10431948;28;20100;-59
2022/11/14 18:08:19;;;;;;;12.98;7.20;;;10.70;98.40;;;;;;10448252;28;20119;-61
2022/11/14 18:13:20;;;;;;;12.80;6.70;;;10.70;98.40;;;;;;10444082;28;20045;-61
2022/11/14 18:18:21;;;;;;;14.63;7.55;;;10.80;98.70;;;;;;10436854;28;20391;-60
2022/11/14 18:23:21;;;;;;;17.05;8.52;;;10.80;98.70;;;;;;10439309;28;20021;-60
2022/11/14 18:28:22;;;;;;;16.20;8.13;;;10.70;98.80;;;;;;10434545;28;20111;-59
2022/11/14 18:33:23;;;;;;;15.35;7.80;;;10.80;99.00;;;;;;10438812;28;20127;-60
2022/11/14 18:38:24;;;;;;;12.55;7.50;;;10.80;99.00;;;;;;10438723;28;20037;-60
2022/11/14 18:43:25;;;;;;;11.35;6.95;;;10.80;99.00;;;;;;10439597;28;20104;-59
2022/11/14 18:48:26;;;;;;;16.10;8.02;;;10.80;99.10;;;;;;10435648;28;20391;-60
2022/11/14 18:53:33;;;;;;;16.55;6.82;;;10.90;99.10;;;;;;10429050;28;20292;-60
2022/11/14 18:58:35;;;;;;;15.05;6.75;;;10.80;99.10;;;;;;10441293;28;20112;-60
2022/11/14 19:03:37;;;;;;;13.93;6.55;;;10.80;99.10;;;;;;10444165;28;20053;-60
2022/11/14 19:08:38;;;;;;;13.45;6.93;;;10.80;99.10;;;;;;10432091;28;20115;-61
2022/11/14 19:13:40;;;;;;;13.88;7.90;;;10.80;99.10;;;;;;10454284;28;20052;-59
2022/11/14 19:18:40;;;;;;;10.90;6.53;;;10.80;99.10;;;;;;10445724;28;20131;-60
2022/11/14 19:23:41;;;;;;;12.50;6.80;;;10.80;99.10;;;;;;10446607;28;20543;-59
2022/11/14 19:28:42;;;;;;;13.60;6.85;;;10.80;99.10;;;;;;10446866;28;20397;-59
2022/11/14 19:33:44;;;;;;;13.07;6.90;;;10.80;99.10;;;;;;10461841;28;20075;-61
2022/11/14 19:38:44;;;;;;;13.68;6.53;;;10.80;99.10;;;;;;10458977;28;20095;-60
2022/11/14 19:43:46;;;;;;;12.07;6.13;;;10.80;99.10;;;;;;10462195;28;20037;-60
2022/11/14 19:48:55;;;;;;;13.05;6.68;;;10.80;99.10;;;;;;10435733;28;20033;-60
2022/11/14 19:53:57;;;;;;;13.93;7.00;;;10.80;99.00;;;;;;10449703;28;20021;-61
2022/11/14 19:58:59;;;;;;;11.02;6.43;;;10.80;99.00;;;;;;10448973;28;20489;-59
2022/11/14 20:04:01;;;;;;;11.18;6.93;;;10.80;99.00;;;;;;10453812;28;20017;-60
2022/11/14 20:09:05;;;;;;;11.77;6.60;;;10.80;99.00;;;;;;10445148;28;20381;-60
2022/11/14 20:14:06;;;;;;;12.05;6.63;;;10.80;99.00;;;;;;10445197;28;20305;-65
2022/11/14 20:19:17;;;;;;;13.30;6.78;;;10.80;99.00;;;;;;10430562;28;20211;-59
2022/11/14 20:24:20;;;;;;;13.35;7.25;;;10.80;99.00;;;;;;10429981;28;20044;-59
2022/11/14 20:29:21;;;;;;;12.02;6.53;;;10.80;99.00;;;;;;10438938;28;20060;-59
2022/11/14 20:34:22;;;;;;;13.82;6.32;;;10.80;99.00;;;;;;10425365;28;20490;-60
2022/11/14 20:39:23;;;;;;;11.50;6.45;;;10.80;99.00;;;;;;10428430;28;20037;-60
2022/11/14 20:44:23;;;;;;;13.80;6.88;;;10.80;99.00;;;;;;10422191;28;20489;-59
2022/11/14 20:49:24;;;;;;;12.52;6.38;;;10.80;99.00;;;;;;10441174;28;20028;-60
2022/11/14 20:54:25;;;;;;;12.77;6.78;;;10.80;99.00;;;;;;10435533;28;20079;-59
2022/11/14 20:59:26;;;;;;;11.90;6.68;;;10.80;99.00;;;;;;10439081;28;20520;-63
2022/11/14 21:04:27;;;;;;;10.93;6.63;;;10.80;99.00;;;;;;10430606;28;20100;-62
2022/11/14 21:09:27;;;;;;;10.95;7.07;;;10.80;99.00;;;;;;10419288;28;20482;-59
2022/11/14 21:14:28;;;;;;;12.35;6.90;;;10.80;99.00;;;;;;10419103;28;20527;-60
2022/11/14 21:19:29;;;;;;;12.48;6.82;;;10.80;99.00;;;;;;10443309;28;20041;-61
2022/11/14 21:24:29;;;;;;;12.45;6.88;;;10.80;99.10;;;;;;10441047;28;20394;-61
2022/11/14 21:29:30;;;;;;;17.17;7.07;;;10.90;99.10;;;;;;10414148;28;20405;-61
2022/11/14 21:34:33;;;;;;;13.95;7.00;;;10.80;99.10;;;;;;10413021;28;20120;-61
2022/11/14 21:39:33;;;;;;;14.02;7.57;;;10.80;99.10;;;;;;10422180;28;20033;-61
2022/11/14 21:44:34;;;;;;;13.10;6.68;;;10.80;99.10;;;;;;10427852;28;20021;-61
2022/11/14 21:49:35;;;;;;;13.63;7.43;;;10.80;99.00;;;;;;10416695;28;20042;-61
2022/11/14 21:54:36;;;;;;;14.02;7.28;;;10.80;99.10;;;;;;10415974;28;20029;-61
2022/11/14 21:59:37;;;;;;;11.95;6.97;;;10.80;99.10;;;;;;10410786;28;20033;-61
2022/11/14 22:04:37;;;;;;;11.48;7.15;;;10.70;99.00;;;;;;10419127;28;20021;-61
2022/11/14 22:09:38;;;;;;;13.32;7.20;;;10.80;99.10;;;;;;10422966;28;20055;-65
2022/11/14 22:14:39;;;;;;;12.57;7.20;;;10.80;99.10;;;;;;10385473;28;1189793;-60
2022/11/14 22:19:39;;;;;;;11.52;6.85;;;10.80;99.10;;;;;;10397264;28;20198;-61
2022/11/14 22:24:40;;;;;;;14.38;7.10;;;10.80;99.10;;;;;;10418134;28;20041;-62
2022/11/14 22:29:41;;;;;;;13.48;7.28;;;11.30;99.20;;;;;;10413421;28;20052;-60
2022/11/14 22:34:41;;;;;;;12.57;7.38;;;10.70;99.10;;;;;;10413132;28;20033;-60
2022/11/14 22:39:42;;;;;;;14.60;7.65;;;10.80;99.10;;;;;;10447725;28;20402;-60
2022/11/14 22:44:43;;;;;;;12.13;6.45;;;10.70;99.10;;;;;;10443260;28;20108;-61
2022/11/14 22:49:44;;;;;;;14.30;7.35;;;10.80;99.10;;;;;;10440392;28;20025;-62
2022/11/14 22:54:44;;;;;;;15.90;7.70;;;10.70;99.10;;;;;;10442932;28;20142;-60
2022/11/14 22:59:45;;;;;;;12.27;6.70;;;10.70;99.10;;;;;;10427477;28;20037;-64
2022/11/14 23:04:46;;;;;;;13.75;6.93;;;10.70;99.10;;;;;;10427391;28;20141;-61
2022/11/14 23:09:46;;;;;;;17.02;7.38;;;10.70;99.10;;;;;;10437801;28;20503;-61
2022/11/14 23:14:47;;;;;;;13.10;6.80;;;10.60;99.10;;;;;;10450535;28;20052;-61
2022/11/14 23:19:48;;;;;;;14.98;7.40;;;10.60;99.10;;;;;;10435029;28;20033;-61
2022/11/14 23:24:48;;;;;;;14.65;8.05;;;10.60;99.10;;;;;;10444615;28;20297;-60
2022/11/14 23:29:49;;;;;;;12.57;7.35;;;10.60;99.10;;;;;;10444625;28;20025;-61
2022/11/14 23:34:49;;;;;;;14.82;7.53;;;10.60;99.10;;;;;;10429680;28;20473;-60
2022/11/14 23:39:50;;;;;;;16.15;7.40;;;10.60;99.10;;;;;;10439520;28;20030;-61
2022/11/14 23:44:51;;;;;;;11.98;6.95;;;10.60;99.10;;;;;;10438721;28;20025;-64
2022/11/14 23:49:52;;;;;;;14.40;6.90;;;10.60;99.10;;;;;;10429285;28;20017;-61
2022/11/14 23:54:52;;;;;;;12.73;7.25;;;10.60;99.10;;;;;;10456778;28;20074;-65
2022/11/14 23:59:53;;;;;;;13.00;7.40;;;10.70;99.10;;;;;;10442967;28;20040;-63
